Acton, ME

12:40 AM EDT on September 03, 2014 (GMT -0400)
Acton Public Safety | Change Station
CLOSE
Current Station
Personal Weather Station
Location: Acton, ME
Elevation: 719 ft
Nearby Weather Stations

Elev 719 ft 43.53 °N, 70.91 °W | Updated 10 seconds ago

Partly Cloudy
Partly Cloudy
71.7 °F
Feels Like 71.7 °F
N
6.0
Wind Variable Wind from WSW
Gusts 8.0 mph

Today
High -- | Low -- °F
--% Chance of Precip.
Yesterday
High -- | Low -- °F
Precip. -- in
6:09 AM 7:15 PM
First Quarter, 58% visible
Pressure 29.71 in
Visibility 5.0 miles
Clouds Scattered Clouds 200 ft
Dew Point 72 °F
Humidity 100%
Rainfall 0.00 in
Snow Depth Not available.
UV 0 out of 12
Pollen 6.80 out of 12
Air Quality Not available.
Flu Activity Not available.
METAR KSFM 030435Z AUTO 22006KT 5SM SCT002 22/20 A2971 RMK AO1

More Conditions Fewer Conditions

Pressure 29.71 in
Visibility 5.0 miles
Clouds Scattered Clouds 200 ft
Dew Point 72 °F
Humidity 100%
Rainfall 0.00 in
Snow Depth Not available.
UV 0 out of 12
Pollen 6.80 out of 12
Air Quality Not available.
Flu Activity Not available.
METAR KSFM 030435Z AUTO 22006KT 5SM SCT002 22/20 A2971 RMK AO1

More Conditions Fewer Conditions

10-Day Weather Forecast

Almanac

Astronomy

Sep. 03, 2014 Rise Set
Actual Time 6:09 AM EDT 7:15 PM EDT
Civil Twilight 5:40 AM EDT 7:44 PM EDT
Nautical Twilight 5:05 AM EDT 8:19 PM EDT
Astronomical Twilight 4:28 AM EDT 8:56 PM EDT
Moon 3:00 PM EDT No Moon Set
Length of Visible Light 14h 04m
Length of Day
13h 05m
Tomorrow will be 2m 53s shorter.
First Quarter, 58% of the Moon is Illuminated
Today
First Quarter
Sep 8
Full
Sep 15
Last Quarter
Sep 24
New
Oct 1
First Quarter

Today's Extremes

State Highs State Lows

Community

WunderPhotos

Upload Photos

1,749,875 photos uploaded!

Nearby

Air Quality

  Air Quality AQ Index Pollutant
Yesterday Good
OZONE
Tuesday Good
OZONE
Tuesday Good
PM2.5
Wednesday Good
OZONE
Wednesday Good
PM2.5
Thursday Good
OZONE
Thursday Good
PM2.5
Friday Good
OZONE
Friday Good
PM2.5
Saturday Good
OZONE
Saturday Good
PM2.5

Snow Depth

Station Depth Elevation
No new snow has been reported.

Earthquake Activity

City Distance Mag. Time & Date
No recent earthquake activity has been reported nearby.
Minimum magnitude displayed is 2.5.

Coastal Water Temperatures

Place Temperature
Wells, ME 62.1 °F
Portland, ME 61.0 °F

Nearby Weather Stations